Time;durP1;ratioP1;P1;durP2;ratioP2;P2;SDS_P1;SDS_P2;PMS_P1;PMS_P2;Temp;Humidity;BMP_temperature;BMP_pressure;BME280_temperature;BME280_humidity;BME280_pressure;Samples;Min_cycle;Max_cycle;Signal;HPM_P1;HPM_P2
2021/08/18 00:00:08;;;;;;;12.88;9.35;;;14.60;99.90;;;;;;1933498;74;21036;-79
2021/08/18 00:02:35;;;;;;;15.43;11.12;;;14.60;99.90;;;;;;1933533;74;21068;-78
2021/08/18 00:05:01;;;;;;;15.15;10.70;;;14.60;99.90;;;;;;1933559;74;21067;-78
2021/08/18 00:07:29;;;;;;;16.87;11.38;;;14.60;99.90;;;;;;1933563;74;21036;-78
2021/08/18 00:09:55;;;;;;;14.18;10.13;;;14.60;99.90;;;;;;1933470;74;21455;-78
2021/08/18 00:12:21;;;;;;;15.95;11.38;;;14.50;99.90;;;;;;1933708;74;21600;-79
2021/08/18 00:14:47;;;;;;;16.30;10.80;;;14.50;99.90;;;;;;1933518;74;21508;-78
2021/08/18 00:17:13;;;;;;;16.00;11.35;;;14.50;99.90;;;;;;1933604;74;21471;-78
2021/08/18 00:19:39;;;;;;;15.25;11.05;;;14.50;99.90;;;;;;1933613;74;21448;-79
2021/08/18 00:22:05;;;;;;;16.50;11.48;;;14.50;99.90;;;;;;1936018;74;21127;-79
2021/08/18 00:24:31;;;;;;;18.15;11.35;;;14.50;99.90;;;;;;1937157;73;21081;-77
2021/08/18 00:26:57;;;;;;;18.85;11.28;;;14.50;99.90;;;;;;1936664;73;20996;-78
2021/08/18 00:29:24;;;;;;;16.62;10.88;;;14.50;99.90;;;;;;1937145;73;21070;-78
2021/08/18 00:31:50;;;;;;;18.27;11.53;;;14.50;99.90;;;;;;1936945;73;21012;-78
2021/08/18 00:34:16;;;;;;;16.73;11.30;;;14.50;99.90;;;;;;1933527;74;21573;-78
2021/08/18 00:36:42;;;;;;;16.23;11.33;;;14.60;99.90;;;;;;1933594;74;21487;-78
2021/08/18 00:39:08;;;;;;;17.80;12.13;;;14.60;99.90;;;;;;1933364;74;21584;-79
2021/08/18 00:41:34;;;;;;;15.75;11.00;;;14.60;99.90;;;;;;1933593;74;21554;-78
2021/08/18 00:44:00;;;;;;;18.92;11.80;;;14.50;99.90;;;;;;1933558;74;21519;-77
2021/08/18 00:46:26;;;;;;;17.07;11.78;;;14.60;99.90;;;;;;1933597;74;21565;-79
2021/08/18 00:48:53;;;;;;;19.92;12.10;;;14.50;99.90;;;;;;1933432;74;21511;-80
2021/08/18 00:51:19;;;;;;;18.98;12.35;;;14.60;99.90;;;;;;1933601;74;21067;-80
2021/08/18 00:53:46;;;;;;;16.37;10.70;;;14.50;99.90;;;;;;1933456;74;21079;-80
2021/08/18 00:56:12;;;;;;;17.77;11.28;;;14.60;99.90;;;;;;1933805;74;21076;-79
2021/08/18 00:58:39;;;;;;;17.57;11.22;;;14.60;99.90;;;;;;1933457;74;21059;-79
2021/08/18 01:01:05;;;;;;;18.65;11.53;;;14.60;99.90;;;;;;1933637;74;21110;-79
2021/08/18 01:03:33;;;;;;;12.68;10.13;;;14.70;99.90;;;;;;1933407;74;21071;-80
2021/08/18 01:05:59;;;;;;;16.85;11.18;;;14.60;99.90;;;;;;1933485;74;21036;-80
2021/08/18 01:08:25;;;;;;;14.33;10.88;;;14.60;99.90;;;;;;1933781;74;21172;-80
2021/08/18 01:10:51;;;;;;;16.57;11.25;;;14.60;99.90;;;;;;1933649;74;21137;-80
2021/08/18 01:13:19;;;;;;;20.32;12.65;;;14.70;99.90;;;;;;1933890;74;21133;-79
2021/08/18 01:15:45;;;;;;;14.13;10.90;;;14.60;99.90;;;;;;1933763;74;21118;-80
2021/08/18 01:18:11;;;;;;;16.10;10.32;;;14.70;99.90;;;;;;1933440;74;21056;-80
2021/08/18 01:20:37;;;;;;;13.48;11.00;;;14.70;99.90;;;;;;1933618;74;21063;-80
2021/08/18 01:23:03;;;;;;;18.55;10.72;;;14.70;99.90;;;;;;1933646;74;21063;-80
2021/08/18 01:25:29;;;;;;;15.78;10.58;;;14.60;99.90;;;;;;1933704;74;21040;-80
2021/08/18 01:27:55;;;;;;;15.98;10.85;;;14.70;99.90;;;;;;1941075;73;21052;-79
2021/08/18 01:30:22;;;;;;;16.42;10.82;;;14.70;99.90;;;;;;1934494;73;21126;-78
2021/08/18 01:32:48;;;;;;;17.98;11.20;;;14.70;99.90;;;;;;1935183;73;21133;-80
2021/08/18 01:35:14;;;;;;;23.20;11.10;;;14.70;99.90;;;;;;1924492;73;21079;-79
2021/08/18 01:37:40;;;;;;;16.12;11.30;;;14.70;99.90;;;;;;1930906;74;21063;-79
2021/08/18 01:40:06;;;;;;;15.05;11.45;;;14.70;99.90;;;;;;1929579;74;21071;-80
2021/08/18 01:42:32;;;;;;;28.47;11.70;;;14.70;99.90;;;;;;1931120;74;21036;-79
2021/08/18 01:44:58;;;;;;;20.92;11.68;;;14.70;99.90;;;;;;1931044;74;21137;-79
2021/08/18 01:47:24;;;;;;;17.12;11.33;;;14.70;99.90;;;;;;1937127;73;21196;-80
2021/08/18 01:49:51;;;;;;;15.72;10.85;;;14.70;99.90;;;;;;1933395;74;21129;-79
2021/08/18 01:52:17;;;;;;;17.37;11.50;;;14.70;99.90;;;;;;1933605;74;21067;-79
2021/08/18 01:54:43;;;;;;;18.30;11.63;;;14.70;99.90;;;;;;1933482;74;21487;-79
2021/08/18 01:57:09;;;;;;;15.83;11.00;;;14.70;99.90;;;;;;1933373;74;21452;-79
2021/08/18 01:59:35;;;;;;;17.55;11.70;;;14.70;99.90;;;;;;1933585;74;21470;-79
2021/08/18 02:02:01;;;;;;;16.27;11.43;;;14.70;99.90;;;;;;1933391;74;21515;-80
2021/08/18 02:04:27;;;;;;;16.30;10.95;;;14.70;99.90;;;;;;1933575;74;21428;-79
2021/08/18 02:06:53;;;;;;;16.80;11.35;;;14.70;99.90;;;;;;1933595;74;21482;-79
2021/08/18 02:09:20;;;;;;;17.30;11.85;;;14.70;99.90;;;;;;1933596;74;21483;-79
2021/08/18 02:11:46;;;;;;;13.15;9.98;;;14.70;99.90;;;;;;1933331;74;21451;-79
2021/08/18 02:14:12;;;;;;;16.25;10.95;;;14.80;99.90;;;;;;1933634;74;21063;-79
2021/08/18 02:16:38;;;;;;;21.35;11.33;;;14.70;99.90;;;;;;1933835;74;21063;-79
2021/08/18 02:19:04;;;;;;;19.85;11.78;;;14.80;99.90;;;;;;1934697;74;21040;-79
2021/08/18 02:21:30;;;;;;;17.70;11.93;;;14.70;99.90;;;;;;1937380;73;21035;-79
2021/08/18 02:23:56;;;;;;;20.15;12.43;;;14.70;99.90;;;;;;1937061;74;21035;-80
2021/08/18 02:26:22;;;;;;;17.30;11.88;;;14.80;99.90;;;;;;1933888;74;21118;-79
2021/08/18 02:28:49;;;;;;;18.77;12.15;;;14.70;99.90;;;;;;1933389;74;21055;-78
2021/08/18 02:31:15;;;;;;;17.07;12.00;;;14.70;99.90;;;;;;1933490;74;21111;-80
2021/08/18 02:33:41;;;;;;;19.12;12.00;;;14.70;99.90;;;;;;1933389;74;21129;-79
2021/08/18 02:36:07;;;;;;;15.30;12.03;;;14.70;99.90;;;;;;1933767;74;21063;-80
2021/08/18 02:38:33;;;;;;;17.65;12.45;;;14.80;99.90;;;;;;1933371;74;21226;-79
2021/08/18 02:40:59;;;;;;;16.70;11.63;;;14.80;99.90;;;;;;1933546;74;21138;-80
2021/08/18 02:43:25;;;;;;;20.05;11.90;;;14.70;99.90;;;;;;1933330;74;21136;-79
2021/08/18 02:45:51;;;;;;;23.12;13.32;;;14.80;99.90;;;;;;1933522;74;21059;-79
2021/08/18 02:48:18;;;;;;;18.82;13.18;;;14.70;99.90;;;;;;1933360;74;21060;-79
2021/08/18 02:50:44;;;;;;;20.30;13.25;;;14.80;99.90;;;;;;1933506;74;21063;-78
2021/08/18 02:53:10;;;;;;;26.55;13.98;;;14.80;99.90;;;;;;1933341;74;21149;-80
2021/08/18 02:55:38;;;;;;;21.45;13.05;;;14.70;99.90;;;;;;1933550;74;21487;-80
2021/08/18 02:58:05;;;;;;;18.25;12.98;;;14.70;99.90;;;;;;1933530;74;21343;-80
2021/08/18 03:00:31;;;;;;;19.10;12.88;;;14.70;99.90;;;;;;1933521;74;21063;-78
2021/08/18 03:02:57;;;;;;;16.93;13.48;;;14.70;99.90;;;;;;1933513;74;21055;-78
2021/08/18 03:05:23;;;;;;;20.90;13.25;;;14.70;99.90;;;;;;1933442;74;21036;-77
2021/08/18 03:07:49;;;;;;;19.70;12.90;;;14.70;99.90;;;;;;1933627;74;21142;-77
2021/08/18 03:10:15;;;;;;;20.95;13.18;;;14.70;99.90;;;;;;1933588;74;21110;-77
2021/08/18 03:12:41;;;;;;;17.98;12.68;;;14.80;99.90;;;;;;1933523;74;21040;-78
2021/08/18 03:15:07;;;;;;;24.23;13.22;;;14.80;99.90;;;;;;1933505;74;21496;-80
2021/08/18 03:17:34;;;;;;;16.37;11.63;;;14.80;99.90;;;;;;1933548;74;21483;-80
2021/08/18 03:20:00;;;;;;;18.77;13.25;;;14.90;99.90;;;;;;1933483;74;21452;-80
2021/08/18 03:22:26;;;;;;;15.72;12.20;;;14.90;99.90;;;;;;1933390;74;21488;-80
2021/08/18 03:24:52;;;;;;;18.90;12.40;;;14.90;99.90;;;;;;1933306;74;21459;-80
2021/08/18 03:27:18;;;;;;;17.37;13.35;;;14.90;99.90;;;;;;1933516;74;21492;-80
2021/08/18 03:29:44;;;;;;;17.05;11.65;;;14.90;99.90;;;;;;1933245;74;21492;-78
2021/08/18 03:32:10;;;;;;;16.48;12.40;;;14.80;99.90;;;;;;1933490;74;21542;-78
2021/08/18 03:34:36;;;;;;;20.65;13.13;;;14.70;99.90;;;;;;1933274;74;21499;-79
2021/08/18 03:37:03;;;;;;;20.48;12.95;;;14.70;99.90;;;;;;1933485;74;21475;-78
2021/08/18 03:39:29;;;;;;;17.15;12.88;;;14.70;99.90;;;;;;1933272;74;21503;-79
2021/08/18 03:41:55;;;;;;;20.97;13.85;;;14.70;99.90;;;;;;1933482;74;21500;-79
2021/08/18 03:44:21;;;;;;;18.75;12.95;;;14.60;99.90;;;;;;1933333;74;21451;-78
2021/08/18 03:46:47;;;;;;;25.30;13.10;;;14.60;99.90;;;;;;1933479;74;21051;-79
2021/08/18 03:49:13;;;;;;;22.05;14.28;;;14.60;99.90;;;;;;1933376;74;21068;-78
2021/08/18 03:51:39;;;;;;;40.15;13.03;;;14.50;99.90;;;;;;1933541;74;21064;-79
2021/08/18 03:54:05;;;;;;;20.17;13.43;;;14.50;99.90;;;;;;1933371;74;21188;-78
2021/08/18 03:56:32;;;;;;;18.57;13.43;;;14.50;99.90;;;;;;1933432;74;21130;-78
2021/08/18 03:58:58;;;;;;;19.30;12.63;;;14.50;99.90;;;;;;1933525;74;21074;-79
2021/08/18 04:01:24;;;;;;;21.60;13.50;;;14.50;99.90;;;;;;1933510;74;21059;-79
2021/08/18 04:03:50;;;;;;;25.32;13.95;;;14.50;99.90;;;;;;1933449;74;21037;-79
2021/08/18 04:06:16;;;;;;;16.55;12.05;;;14.60;99.90;;;;;;1933491;74;21140;-78
2021/08/18 04:08:42;;;;;;;16.35;12.78;;;14.50;99.90;;;;;;1933470;74;21065;-79
2021/08/18 04:11:09;;;;;;;18.70;12.13;;;14.50;99.90;;;;;;1933463;74;21072;-79
2021/08/18 04:13:36;;;;;;;19.73;13.32;;;14.50;99.90;;;;;;1940702;73;21102;-78
2021/08/18 04:16:02;;;;;;;18.62;12.18;;;14.50;99.90;;;;;;1936693;73;21066;-79
2021/08/18 04:18:28;;;;;;;16.97;12.40;;;14.50;99.90;;;;;;1933466;74;21055;-79
2021/08/18 04:20:54;;;;;;;21.35;12.65;;;14.50;99.90;;;;;;1929965;74;21036;-78
2021/08/18 04:23:21;;;;;;;18.07;11.83;;;14.50;99.90;;;;;;1933405;74;21051;-79
2021/08/18 04:25:47;;;;;;;16.95;11.53;;;14.50;99.90;;;;;;1933387;74;21146;-79
2021/08/18 04:28:13;;;;;;;23.95;12.30;;;14.50;99.90;;;;;;1933463;74;21040;-78
2021/08/18 04:30:39;;;;;;;22.52;12.68;;;14.60;99.90;;;;;;1933562;74;21047;-79
2021/08/18 04:33:05;;;;;;;14.40;11.48;;;14.60;99.90;;;;;;1933480;74;21164;-79
2021/08/18 04:35:31;;;;;;;42.35;12.23;;;14.60;99.90;;;;;;1933516;74;21125;-79
2021/08/18 04:37:57;;;;;;;18.05;12.23;;;14.50;99.90;;;;;;1933823;74;21036;-79
2021/08/18 04:40:24;;;;;;;17.00;11.65;;;14.50;99.90;;;;;;1933545;74;21060;-79
2021/08/18 04:42:50;;;;;;;20.35;12.00;;;14.50;99.90;;;;;;1933650;74;21075;-79
2021/08/18 04:45:16;;;;;;;13.55;10.93;;;14.50;99.90;;;;;;1933867;74;21075;-79
2021/08/18 04:47:42;;;;;;;14.33;11.08;;;14.60;99.90;;;;;;1933372;74;21055;-79
2021/08/18 04:50:09;;;;;;;20.05;12.28;;;14.60;99.90;;;;;;1933526;74;21067;-79
2021/08/18 04:52:35;;;;;;;16.02;11.60;;;14.60;99.90;;;;;;1933292;74;21064;-79
2021/08/18 04:55:01;;;;;;;18.27;12.18;;;14.60;99.90;;;;;;1933477;74;21051;-79
2021/08/18 04:57:27;;;;;;;33.23;11.85;;;14.60;99.90;;;;;;1933326;74;21063;-79
2021/08/18 04:59:53;;;;;;;15.20;11.33;;;14.50;99.90;;;;;;1933489;74;21059;-79
2021/08/18 05:02:19;;;;;;;13.15;10.78;;;14.50;99.90;;;;;;1933405;74;21059;-79
2021/08/18 05:04:45;;;;;;;17.62;11.12;;;14.50;99.90;;;;;;1933374;74;21059;-78
2021/08/18 05:07:11;;;;;;;16.60;11.63;;;14.60;99.90;;;;;;1933389;74;21020;-79
2021/08/18 05:09:38;;;;;;;15.68;10.75;;;14.60;99.90;;;;;;1933398;74;21032;-78
2021/08/18 05:12:04;;;;;;;14.83;10.98;;;14.60;99.90;;;;;;1933352;74;21141;-75
2021/08/18 05:14:30;;;;;;;13.60;10.58;;;14.70;99.90;;;;;;1933552;74;21149;-79
2021/08/18 05:16:56;;;;;;;21.42;12.05;;;14.70;99.90;;;;;;1933372;74;21079;-79
2021/08/18 05:19:22;;;;;;;18.07;10.95;;;14.60;99.90;;;;;;1933518;74;21067;-79
2021/08/18 05:21:48;;;;;;;18.23;10.48;;;14.70;99.90;;;;;;1933362;74;21067;-81
2021/08/18 05:24:14;;;;;;;16.05;10.38;;;14.80;99.90;;;;;;1933596;74;21032;-80
2021/08/18 05:26:41;;;;;;;13.85;10.32;;;14.80;99.90;;;;;;1933342;74;21059;-80
2021/08/18 05:29:07;;;;;;;12.15;9.50;;;14.80;99.90;;;;;;1933545;74;21075;-81
2021/08/18 05:31:33;;;;;;;19.07;10.43;;;14.80;99.90;;;;;;1933379;74;21094;-79
2021/08/18 05:33:59;;;;;;;19.05;11.10;;;14.80;99.90;;;;;;1933559;74;21149;-78
2021/08/18 05:36:25;;;;;;;14.83;11.22;;;14.80;99.90;;;;;;1933461;74;21148;-80
2021/08/18 05:38:51;;;;;;;14.38;10.25;;;14.80;99.90;;;;;;1933527;74;21040;-79
2021/08/18 05:41:19;;;;;;;15.80;10.53;;;14.80;99.90;;;;;;1933410;74;21120;-79
2021/08/18 05:43:45;;;;;;;13.48;10.15;;;14.80;99.90;;;;;;1933433;74;21491;-79
2021/08/18 05:46:11;;;;;;;13.58;9.83;;;14.80;99.90;;;;;;1933527;74;21520;-80
2021/08/18 05:48:37;;;;;;;12.55;9.70;;;14.80;99.90;;;;;;1933456;74;21511;-77
2021/08/18 05:51:07;;;;;;;14.13;10.63;;;14.90;99.90;;;;;;1933321;74;21534;-81
2021/08/18 05:53:31;;;;;;;15.20;10.32;;;14.90;99.90;;;;;;1932965;74;21035;-78
2021/08/18 05:55:57;;;;;;;15.55;9.73;;;14.90;99.90;;;;;;1933428;74;21063;-79
2021/08/18 05:58:23;;;;;;;12.58;10.60;;;15.00;99.90;;;;;;1933517;74;21055;-79
2021/08/18 06:00:49;;;;;;;13.90;10.28;;;15.00;99.90;;;;;;1933272;74;21061;-77
2021/08/18 06:03:15;;;;;;;17.50;11.05;;;15.00;99.90;;;;;;1933823;74;21063;-78
2021/08/18 06:05:42;;;;;;;12.28;9.80;;;15.00;99.90;;;;;;1933486;74;21133;-79
2021/08/18 06:08:08;;;;;;;16.27;10.65;;;15.10;99.90;;;;;;1933450;74;21041;-79
2021/08/18 06:10:34;;;;;;;16.87;9.85;;;15.20;99.90;;;;;;1930308;73;21503;-78
2021/08/18 06:13:05;;;;;;;18.17;10.95;;;15.30;99.90;;;;;;1933584;74;21459;-78
2021/08/18 06:15:28;;;;;;;19.05;10.63;;;15.30;99.90;;;;;;1931131;74;21219;-78
2021/08/18 06:17:54;;;;;;;14.45;10.53;;;15.30;99.90;;;;;;1933387;74;21059;-79
2021/08/18 06:20:20;;;;;;;23.32;10.80;;;15.30;99.90;;;;;;1933340;74;21152;-78
2021/08/18 06:22:46;;;;;;;18.42;12.00;;;15.40;99.90;;;;;;1933331;74;21126;-79
2021/08/18 06:25:12;;;;;;;13.83;10.70;;;15.40;99.90;;;;;;1933285;74;21145;-79
2021/08/18 06:27:38;;;;;;;12.47;10.32;;;15.30;99.90;;;;;;1933354;74;21121;-79
2021/08/18 06:30:05;;;;;;;12.53;10.38;;;15.50;99.90;;;;;;1934674;74;21059;-78
2021/08/18 06:32:31;;;;;;;33.58;11.00;;;15.50;99.90;;;;;;1937107;74;21027;-78
2021/08/18 06:34:57;;;;;;;15.55;10.53;;;15.50;99.90;;;;;;1937092;74;21117;-79
2021/08/18 06:37:23;;;;;;;14.07;11.18;;;15.60;99.90;;;;;;1937087;73;21086;-79
2021/08/18 06:39:49;;;;;;;15.30;10.50;;;15.60;99.90;;;;;;1934042;74;21024;-78
2021/08/18 06:42:15;;;;;;;14.47;11.28;;;15.80;99.90;;;;;;1933360;74;21055;-78
2021/08/18 06:44:42;;;;;;;15.45;10.23;;;15.80;99.90;;;;;;1933427;74;21137;-79
2021/08/18 06:47:08;;;;;;;13.68;10.08;;;16.10;99.90;;;;;;1933364;74;21071;-75
2021/08/18 06:49:34;;;;;;;12.07;9.70;;;16.20;99.90;;;;;;1933452;74;21059;-78
2021/08/18 06:52:00;;;;;;;12.50;10.05;;;16.30;99.90;;;;;;1933275;74;21059;-78
2021/08/18 06:54:26;;;;;;;14.35;10.13;;;16.20;99.90;;;;;;1933551;74;21102;-77
2021/08/18 06:56:54;;;;;;;14.28;9.85;;;16.30;99.90;;;;;;1933266;74;21036;-79
2021/08/18 06:59:20;;;;;;;13.15;9.73;;;16.30;99.90;;;;;;1933454;74;21067;-79
2021/08/18 07:01:46;;;;;;;13.48;9.65;;;16.40;99.90;;;;;;1933501;74;21172;-78
2021/08/18 07:04:12;;;;;;;14.03;9.83;;;16.40;99.90;;;;;;1933563;74;21024;-78
2021/08/18 07:06:38;;;;;;;16.07;9.68;;;16.40;99.90;;;;;;1933661;74;21067;-79
2021/08/18 07:09:04;;;;;;;23.07;9.83;;;16.50;99.90;;;;;;1933465;74;21142;-79
2021/08/18 07:11:30;;;;;;;15.08;9.65;;;16.60;99.90;;;;;;1933419;74;21063;-79
2021/08/18 07:13:59;;;;;;;10.70;8.65;;;16.60;99.90;;;;;;1933435;74;21091;-79
2021/08/18 07:16:24;;;;;;;16.07;7.42;;;16.80;99.90;;;;;;1933242;74;21154;-78
2021/08/18 07:18:51;;;;;;;13.88;9.15;;;16.90;99.90;;;;;;1933534;74;21132;-78
2021/08/18 07:21:20;;;;;;;11.10;8.58;;;17.10;99.90;;;;;;1933305;74;21087;-79
2021/08/18 07:23:44;;;;;;;11.00;7.20;;;17.20;99.90;;;;;;1933454;74;21117;-79
2021/08/18 07:26:11;;;;;;;10.08;6.78;;;17.40;99.90;;;;;;1933544;74;21071;-78
2021/08/18 07:28:37;;;;;;;8.83;6.60;;;17.40;99.90;;;;;;1933686;74;21111;-77
2021/08/18 07:31:03;;;;;;;11.03;7.65;;;17.00;99.90;;;;;;1933500;74;21470;-77
2021/08/18 07:33:29;;;;;;;8.60;6.22;;;17.00;99.90;;;;;;1933557;74;21166;-77
2021/08/18 07:35:55;;;;;;;7.00;6.30;;;17.00;99.90;;;;;;1933439;74;21448;-78
2021/08/18 07:38:21;;;;;;;8.80;5.42;;;17.00;99.90;;;;;;1933732;74;21424;-77
2021/08/18 07:40:47;;;;;;;8.60;5.80;;;16.90;99.90;;;;;;1933752;74;21516;-77
2021/08/18 07:43:14;;;;;;;10.23;6.60;;;17.00;99.90;;;;;;1933775;74;21113;-78
2021/08/18 07:45:42;;;;;;;12.18;6.37;;;16.90;99.90;;;;;;1933749;74;21133;-78
2021/08/18 07:48:10;;;;;;;8.88;6.17;;;16.90;99.90;;;;;;1933503;74;21133;-78
2021/08/18 07:50:35;;;;;;;13.53;5.83;;;17.00;99.90;;;;;;1932844;74;21569;-78
2021/08/18 07:53:01;;;;;;;12.43;6.15;;;17.10;99.90;;;;;;1933547;74;21484;-78
2021/08/18 07:55:28;;;;;;;14.00;6.05;;;17.40;99.90;;;;;;1933637;74;21451;-78
2021/08/18 07:57:54;;;;;;;7.10;5.45;;;17.50;99.90;;;;;;1933500;74;21063;-78
2021/08/18 08:00:20;;;;;;;7.08;5.75;;;17.60;99.90;;;;;;1933513;74;21068;-79
2021/08/18 08:02:46;;;;;;;8.28;5.70;;;17.70;99.90;;;;;;1933609;74;21099;-78
2021/08/18 08:05:12;;;;;;;6.83;4.75;;;17.70;99.90;;;;;;1933705;74;21064;-78
2021/08/18 08:07:38;;;;;;;5.50;4.55;;;17.80;99.90;;;;;;1939024;73;21074;-78
2021/08/18 08:10:05;;;;;;;7.65;5.00;;;17.80;99.90;;;;;;1934532;73;21491;-78
2021/08/18 08:12:31;;;;;;;3.67;3.37;;;17.80;99.90;;;;;;1929994;74;21149;-78
2021/08/18 08:14:57;;;;;;;7.70;4.12;;;17.80;99.90;;;;;;1933647;74;21076;-78
2021/08/18 08:17:23;;;;;;;6.03;4.05;;;17.70;99.90;;;;;;1917774;74;21025;-79
2021/08/18 08:19:50;;;;;;;6.92;4.25;;;17.80;99.90;;;;;;1939716;73;21495;-78
2021/08/18 08:22:16;;;;;;;6.15;3.80;;;17.80;99.90;;;;;;1934457;73;21125;-79
2021/08/18 08:24:42;;;;;;;5.20;3.92;;;18.00;99.90;;;;;;1933563;74;21094;-79
2021/08/18 08:27:08;;;;;;;7.95;3.92;;;18.10;99.90;;;;;;1933436;74;21059;-78
2021/08/18 08:29:34;;;;;;;5.90;4.40;;;18.30;99.90;;;;;;1933499;74;21064;-79
2021/08/18 08:32:00;;;;;;;12.00;4.30;;;18.40;99.90;;;;;;1933509;74;21071;-79
2021/08/18 08:34:26;;;;;;;3.17;2.70;;;18.40;99.90;;;;;;1933627;74;21106;-78
2021/08/18 08:36:53;;;;;;;3.52;3.22;;;18.20;99.90;;;;;;1933662;74;21063;-79
2021/08/18 08:39:19;;;;;;;3.12;2.62;;;18.00;99.90;;;;;;1933587;74;21036;-78
2021/08/18 08:41:45;;;;;;;2.70;2.50;;;18.00;99.90;;;;;;1933391;74;21063;-79
2021/08/18 08:44:11;;;;;;;4.25;2.67;;;18.00;99.90;;;;;;1933588;74;21456;-79
2021/08/18 08:46:37;;;;;;;2.90;2.33;;;18.00;99.90;;;;;;1933377;74;21527;-81
2021/08/18 08:49:03;;;;;;;2.17;2.05;;;18.00;99.90;;;;;;1933539;74;21032;-79
2021/08/18 08:51:30;;;;;;;4.03;2.75;;;18.10;99.90;;;;;;1933593;74;21137;-79
2021/08/18 08:53:56;;;;;;;2.58;2.37;;;18.10;99.90;;;;;;1933480;74;21063;-78
2021/08/18 08:56:22;;;;;;;4.15;2.55;;;18.00;99.90;;;;;;1933747;74;21138;-79
2021/08/18 08:58:48;;;;;;;5.60;2.75;;;18.10;99.90;;;;;;1933398;74;21044;-80
2021/08/18 09:01:14;;;;;;;6.85;2.90;;;18.00;99.90;;;;;;1933747;74;21413;-80
2021/08/18 09:03:40;;;;;;;4.35;2.75;;;18.00;99.90;;;;;;1933643;74;21133;-79
2021/08/18 09:06:07;;;;;;;3.20;2.58;;;17.90;99.90;;;;;;1933630;74;21103;-80
2021/08/18 09:08:33;;;;;;;2.85;2.50;;;17.70;99.90;;;;;;1933555;74;21056;-79
2021/08/18 09:10:59;;;;;;;3.02;2.40;;;17.60;99.90;;;;;;1933651;74;21068;-80
2021/08/18 09:13:25;;;;;;;2.67;2.35;;;17.60;99.90;;;;;;1933554;74;21039;-79
2021/08/18 09:15:51;;;;;;;3.42;2.42;;;17.60;99.90;;;;;;1933526;74;21056;-80
2021/08/18 09:18:17;;;;;;;3.17;2.20;;;17.80;99.90;;;;;;1933570;74;21100;-79
2021/08/18 09:20:43;;;;;;;5.42;2.75;;;18.00;99.90;;;;;;1933528;74;21060;-76
2021/08/18 09:23:09;;;;;;;3.40;2.30;;;18.10;99.90;;;;;;1933622;74;21058;-77
2021/08/18 09:25:38;;;;;;;2.20;2.08;;;18.10;99.90;;;;;;1933406;74;21059;-79
2021/08/18 09:28:04;;;;;;;3.45;2.40;;;18.00;99.90;;;;;;1933369;74;21056;-79
2021/08/18 09:30:30;;;;;;;1.82;1.72;;;18.00;99.90;;;;;;1933552;74;21553;-79
2021/08/18 09:32:57;;;;;;;2.27;1.85;;;18.10;99.90;;;;;;1933450;74;21620;-79
2021/08/18 09:35:23;;;;;;;1.87;1.77;;;18.20;99.90;;;;;;1933453;74;21479;-79
2021/08/18 09:37:49;;;;;;;2.27;2.08;;;18.20;99.90;;;;;;1933466;74;21572;-80
2021/08/18 09:40:15;;;;;;;3.37;2.10;;;18.20;99.90;;;;;;1933580;74;21467;-80
2021/08/18 09:42:41;;;;;;;2.55;2.00;;;18.20;99.90;;;;;;1933429;74;21059;-79
2021/08/18 09:45:09;;;;;;;1.65;1.55;;;18.10;99.90;;;;;;1933541;74;21071;-79
2021/08/18 09:47:35;;;;;;;2.27;1.80;;;18.10;99.90;;;;;;1933967;73;21071;-79
2021/08/18 09:50:01;;;;;;;2.40;2.02;;;18.20;99.90;;;;;;1933512;74;21545;-80
2021/08/18 09:52:27;;;;;;;3.55;2.10;;;18.30;99.90;;;;;;1933464;74;21596;-80
2021/08/18 09:54:53;;;;;;;5.28;2.50;;;18.10;99.90;;;;;;1933348;74;21440;-80
2021/08/18 09:57:20;;;;;;;6.30;1.52;;;18.00;99.90;;;;;;1933849;74;21487;-79
2021/08/18 09:59:48;;;;;;;1.47;1.30;;;17.90;99.90;;;;;;1933370;74;21491;-80
2021/08/18 10:02:14;;;;;;;1.10;1.00;;;17.90;99.90;;;;;;1933489;74;21158;-80
2021/08/18 10:04:40;;;;;;;3.27;1.40;;;17.90;99.90;;;;;;1933657;74;21032;-77
2021/08/18 10:07:06;;;;;;;1.77;1.20;;;17.90;99.90;;;;;;1933581;74;21071;-79
2021/08/18 10:09:32;;;;;;;2.02;1.10;;;18.00;99.90;;;;;;1933603;74;21059;-80
2021/08/18 10:11:58;;;;;;;1.62;1.27;;;18.40;99.90;;;;;;1933461;74;21063;-79
2021/08/18 10:14:25;;;;;;;1.17;1.05;;;18.90;99.90;;;;;;1933633;74;21060;-79
2021/08/18 10:16:52;;;;;;;1.52;1.12;;;19.40;99.90;;;;;;1933503;74;21145;-78
2021/08/18 10:19:18;;;;;;;1.65;1.35;;;19.70;99.90;;;;;;1930222;73;21153;-78
2021/08/18 10:21:44;;;;;;;0.78;0.75;;;20.00;99.90;;;;;;1935766;74;21031;-76
2021/08/18 10:24:10;;;;;;;0.65;0.60;;;20.40;99.90;;;;;;1933917;74;21463;-79
2021/08/18 10:26:38;;;;;;;0.85;0.85;;;20.90;99.90;;;;;;1933848;74;21103;-79
2021/08/18 10:29:05;;;;;;;1.10;1.00;;;20.80;99.90;;;;;;1934372;74;21024;-76
2021/08/18 10:31:32;;;;;;;0.78;0.75;;;20.40;99.90;;;;;;1941122;73;21160;-77
2021/08/18 10:33:58;;;;;;;0.98;0.82;;;20.10;99.90;;;;;;1933418;74;21153;-76
2021/08/18 10:36:24;;;;;;;0.82;0.68;;;20.30;99.90;;;;;;1933638;74;21079;-77
2021/08/18 10:38:50;;;;;;;1.50;0.93;;;20.50;99.90;;;;;;1933775;74;21036;-76
2021/08/18 10:41:16;;;;;;;0.72;0.70;;;20.60;99.90;;;;;;1933520;74;21295;-76
2021/08/18 10:43:43;;;;;;;1.07;0.90;;;20.70;99.90;;;;;;1933554;74;21122;-76
2021/08/18 10:46:09;;;;;;;0.93;0.70;;;20.90;99.90;;;;;;1933526;74;21068;-77
2021/08/18 10:48:35;;;;;;;0.90;0.90;;;21.10;99.90;;;;;;1934438;74;21004;-76
2021/08/18 10:51:01;;;;;;;1.57;0.72;;;21.80;99.90;;;;;;1933715;74;21404;-77
2021/08/18 10:53:27;;;;;;;0.80;0.80;;;21.90;99.90;;;;;;1933533;74;21543;-77
2021/08/18 10:55:54;;;;;;;2.77;0.80;;;21.80;99.90;;;;;;1933293;74;21190;-77
2021/08/18 10:58:20;;;;;;;2.92;0.85;;;21.50;99.90;;;;;;1933453;74;21068;-76
2021/08/18 11:00:46;;;;;;;0.80;0.80;;;21.40;99.90;;;;;;1933394;74;21209;-77
2021/08/18 11:03:12;;;;;;;0.80;0.80;;;20.80;99.90;;;;;;1933342;74;21137;-76
2021/08/18 11:05:38;;;;;;;2.15;0.70;;;20.50;99.90;;;;;;1933411;74;21067;-75
2021/08/18 11:08:04;;;;;;;0.75;0.75;;;20.00;99.90;;;;;;1933419;74;21154;-76
2021/08/18 11:10:31;;;;;;;0.62;0.62;;;20.00;99.90;;;;;;1933499;74;21492;-76
2021/08/18 11:12:57;;;;;;;0.70;0.70;;;19.90;99.90;;;;;;1933463;74;21514;-75
2021/08/18 11:15:24;;;;;;;0.53;0.50;;;19.90;99.90;;;;;;1933566;74;21499;-76
2021/08/18 11:17:51;;;;;;;0.60;0.42;;;19.70;99.90;;;;;;1933698;74;21468;-76
2021/08/18 11:20:17;;;;;;;0.40;0.40;;;19.50;99.90;;;;;;1933557;74;21535;-76
2021/08/18 11:22:43;;;;;;;0.72;0.70;;;19.40;99.90;;;;;;1936113;73;21277;-76
2021/08/18 11:25:09;;;;;;;1.15;1.05;;;19.20;99.90;;;;;;1937388;73;21059;-76
2021/08/18 11:27:35;;;;;;;3.30;0.72;;;19.30;99.90;;;;;;1935216;73;21013;-76
2021/08/18 11:30:01;;;;;;;0.40;0.40;;;19.60;99.90;;;;;;1933628;74;21162;-75
2021/08/18 11:32:27;;;;;;;1.70;0.60;;;19.80;99.90;;;;;;1933685;74;21095;-75
2021/08/18 11:34:53;;;;;;;1.10;0.90;;;20.00;99.90;;;;;;1933662;74;21063;-75
2021/08/18 11:37:20;;;;;;;1.57;0.88;;;20.20;99.90;;;;;;1933570;74;21059;-75
2021/08/18 11:39:52;;;;;;;0.50;0.50;;;19.80;99.90;;;;;;1933724;74;21133;-75
2021/08/18 11:42:14;;;;;;;1.67;0.80;;;19.60;99.90;;;;;;1930570;74;21472;-75
2021/08/18 11:44:41;;;;;;;1.10;0.80;;;19.40;99.90;;;;;;1933387;74;21447;-75
2021/08/18 11:47:08;;;;;;;3.00;0.60;;;19.60;99.90;;;;;;1933662;74;21172;-77
2021/08/18 11:49:34;;;;;;;0.65;0.57;;;19.80;99.90;;;;;;1933568;74;21610;-75
2021/08/18 11:52:00;;;;;;;0.78;0.60;;;20.00;99.90;;;;;;1933557;74;21565;-76
2021/08/18 11:54:26;;;;;;;0.78;0.60;;;20.00;99.90;;;;;;1933587;74;21458;-75
2021/08/18 11:56:52;;;;;;;0.60;0.60;;;20.30;99.90;;;;;;1933599;74;21063;-75
2021/08/18 11:59:18;;;;;;;0.62;0.62;;;20.40;99.90;;;;;;1933536;74;21068;-75
2021/08/18 12:01:46;;;;;;;1.47;0.80;;;20.40;99.90;;;;;;1933612;74;21052;-75
2021/08/18 12:04:12;;;;;;;0.65;0.65;;;20.20;99.90;;;;;;1933578;74;21032;-77
2021/08/18 12:06:38;;;;;;;0.80;0.80;;;20.30;99.90;;;;;;1933567;74;21086;-76
2021/08/18 12:09:05;;;;;;;5.03;0.95;;;20.20;99.90;;;;;;1933479;74;21024;-78
2021/08/18 12:11:31;;;;;;;0.85;0.72;;;21.40;99.90;;;;;;1933829;74;21145;-78
2021/08/18 12:13:57;;;;;;;0.85;0.80;;;22.20;99.90;;;;;;1933476;74;21553;-77
2021/08/18 12:16:23;;;;;;;0.62;0.62;;;22.00;99.90;;;;;;1933639;74;21472;-77
2021/08/18 12:18:51;;;;;;;1.55;0.70;;;21.60;99.90;;;;;;1933438;74;21571;-77
2021/08/18 12:21:17;;;;;;;1.20;1.00;;;21.10;99.90;;;;;;1933630;74;21183;-78
2021/08/18 12:23:46;;;;;;;0.80;0.80;;;20.90;99.90;;;;;;1933509;74;21067;-78
2021/08/18 12:26:11;;;;;;;0.88;0.88;;;21.40;99.90;;;;;;1933460;74;21067;-78
2021/08/18 12:28:37;;;;;;;0.50;0.50;;;22.50;99.90;;;;;;1927191;74;21111;-78